sensor_id;sensor_type;location;lat;lon;timestamp;P1;durP1;ratioP1;P2;durP2;ratioP2
69172;SDS011;56280;49.662;8.408;2024-03-22T00:01:50;16.23;;;9.50;;
69172;SDS011;56280;49.662;8.408;2024-03-22T00:04:18;16.08;;;10.15;;
69172;SDS011;56280;49.662;8.408;2024-03-22T00:06:44;15.70;;;9.27;;
69172;SDS011;56280;49.662;8.408;2024-03-22T00:09:10;15.00;;;9.38;;
69172;SDS011;56280;49.662;8.408;2024-03-22T00:11:36;15.83;;;9.30;;
69172;SDS011;56280;49.662;8.408;2024-03-22T00:14:02;16.25;;;9.90;;
69172;SDS011;56280;49.662;8.408;2024-03-22T00:16:27;16.17;;;10.17;;
69172;SDS011;56280;49.662;8.408;2024-03-22T00:18:53;19.87;;;11.07;;
69172;SDS011;56280;49.662;8.408;2024-03-22T00:21:18;18.90;;;11.07;;
69172;SDS011;56280;49.662;8.408;2024-03-22T00:23:44;21.17;;;11.40;;
69172;SDS011;56280;49.662;8.408;2024-03-22T00:26:10;19.27;;;11.60;;
69172;SDS011;56280;49.662;8.408;2024-03-22T00:28:35;20.17;;;12.13;;
69172;SDS011;56280;49.662;8.408;2024-03-22T00:31:00;19.53;;;11.70;;
69172;SDS011;56280;49.662;8.408;2024-03-22T00:33:25;18.87;;;11.23;;
69172;SDS011;56280;49.662;8.408;2024-03-22T00:35:51;19.30;;;11.70;;
69172;SDS011;56280;49.662;8.408;2024-03-22T00:38:16;18.50;;;11.07;;
69172;SDS011;56280;49.662;8.408;2024-03-22T00:40:41;19.53;;;11.73;;
69172;SDS011;56280;49.662;8.408;2024-03-22T00:43:07;19.73;;;11.73;;
69172;SDS011;56280;49.662;8.408;2024-03-22T00:45:32;20.60;;;12.05;;
69172;SDS011;56280;49.662;8.408;2024-03-22T00:47:57;21.73;;;12.43;;
69172;SDS011;56280;49.662;8.408;2024-03-22T00:50:23;21.00;;;12.53;;
69172;SDS011;56280;49.662;8.408;2024-03-22T00:52:49;22.33;;;13.10;;
69172;SDS011;56280;49.662;8.408;2024-03-22T00:55:15;20.33;;;12.50;;
69172;SDS011;56280;49.662;8.408;2024-03-22T00:57:40;22.00;;;13.53;;
69172;SDS011;56280;49.662;8.408;2024-03-22T01:00:06;23.73;;;14.40;;
69172;SDS011;56280;49.662;8.408;2024-03-22T01:02:32;21.38;;;14.60;;
69172;SDS011;56280;49.662;8.408;2024-03-22T01:04:57;23.57;;;14.00;;
69172;SDS011;56280;49.662;8.408;2024-03-22T01:07:22;22.17;;;13.77;;
69172;SDS011;56280;49.662;8.408;2024-03-22T01:09:48;21.57;;;13.43;;
69172;SDS011;56280;49.662;8.408;2024-03-22T01:12:13;22.50;;;13.77;;
69172;SDS011;56280;49.662;8.408;2024-03-22T01:14:38;21.27;;;14.40;;
69172;SDS011;56280;49.662;8.408;2024-03-22T01:17:03;20.87;;;14.73;;
69172;SDS011;56280;49.662;8.408;2024-03-22T01:19:29;19.23;;;14.60;;
69172;SDS011;56280;49.662;8.408;2024-03-22T01:21:54;19.83;;;15.17;;
69172;SDS011;56280;49.662;8.408;2024-03-22T01:24:19;22.07;;;14.97;;
69172;SDS011;56280;49.662;8.408;2024-03-22T01:26:44;21.80;;;15.73;;
69172;SDS011;56280;49.662;8.408;2024-03-22T01:29:10;22.17;;;15.10;;
69172;SDS011;56280;49.662;8.408;2024-03-22T01:31:35;21.10;;;14.17;;
69172;SDS011;56280;49.662;8.408;2024-03-22T01:34:00;21.07;;;16.03;;
69172;SDS011;56280;49.662;8.408;2024-03-22T01:36:26;21.30;;;14.10;;
69172;SDS011;56280;49.662;8.408;2024-03-22T01:38:51;22.27;;;17.80;;
69172;SDS011;56280;49.662;8.408;2024-03-22T01:41:16;19.93;;;15.30;;
69172;SDS011;56280;49.662;8.408;2024-03-22T01:43:42;24.25;;;19.23;;
69172;SDS011;56280;49.662;8.408;2024-03-22T01:46:08;27.00;;;22.67;;
69172;SDS011;56280;49.662;8.408;2024-03-22T01:48:34;27.07;;;24.27;;
69172;SDS011;56280;49.662;8.408;2024-03-22T01:50:59;25.47;;;22.73;;
69172;SDS011;56280;49.662;8.408;2024-03-22T01:53:25;26.83;;;24.13;;
69172;SDS011;56280;49.662;8.408;2024-03-22T01:55:51;28.33;;;25.47;;
69172;SDS011;56280;49.662;8.408;2024-03-22T01:58:16;28.43;;;25.53;;
69172;SDS011;56280;49.662;8.408;2024-03-22T02:00:42;27.13;;;24.33;;
69172;SDS011;56280;49.662;8.408;2024-03-22T02:03:08;28.80;;;25.87;;
69172;SDS011;56280;49.662;8.408;2024-03-22T02:05:33;26.93;;;24.07;;
69172;SDS011;56280;49.662;8.408;2024-03-22T02:07:58;28.10;;;25.20;;
69172;SDS011;56280;49.662;8.408;2024-03-22T02:10:24;26.13;;;23.60;;
69172;SDS011;56280;49.662;8.408;2024-03-22T02:12:49;28.20;;;25.17;;
69172;SDS011;56280;49.662;8.408;2024-03-22T02:15:14;29.37;;;26.50;;
69172;SDS011;56280;49.662;8.408;2024-03-22T02:17:39;27.77;;;25.07;;
69172;SDS011;56280;49.662;8.408;2024-03-22T02:20:05;28.83;;;26.13;;
69172;SDS011;56280;49.662;8.408;2024-03-22T02:22:31;28.58;;;25.67;;
69172;SDS011;56280;49.662;8.408;2024-03-22T02:24:56;28.60;;;25.83;;
69172;SDS011;56280;49.662;8.408;2024-03-22T02:27:21;31.97;;;28.87;;
69172;SDS011;56280;49.662;8.408;2024-03-22T02:29:47;30.97;;;28.07;;
69172;SDS011;56280;49.662;8.408;2024-03-22T02:32:12;31.37;;;28.30;;
69172;SDS011;56280;49.662;8.408;2024-03-22T02:34:38;30.80;;;27.60;;
69172;SDS011;56280;49.662;8.408;2024-03-22T02:37:03;29.27;;;26.50;;
69172;SDS011;56280;49.662;8.408;2024-03-22T02:39:28;31.03;;;27.00;;
69172;SDS011;56280;49.662;8.408;2024-03-22T02:41:54;32.60;;;29.30;;
69172;SDS011;56280;49.662;8.408;2024-03-22T02:44:20;32.00;;;28.63;;
69172;SDS011;56280;49.662;8.408;2024-03-22T02:46:45;31.40;;;28.20;;
69172;SDS011;56280;49.662;8.408;2024-03-22T02:49:11;32.60;;;29.50;;
69172;SDS011;56280;49.662;8.408;2024-03-22T02:51:36;30.17;;;27.07;;
69172;SDS011;56280;49.662;8.408;2024-03-22T02:54:01;32.47;;;29.20;;
69172;SDS011;56280;49.662;8.408;2024-03-22T02:56:27;30.23;;;27.17;;
69172;SDS011;56280;49.662;8.408;2024-03-22T02:58:52;29.87;;;27.07;;
69172;SDS011;56280;49.662;8.408;2024-03-22T03:01:18;27.53;;;24.77;;
69172;SDS011;56280;49.662;8.408;2024-03-22T03:03:43;27.63;;;24.93;;
69172;SDS011;56280;49.662;8.408;2024-03-22T03:06:08;31.00;;;28.10;;
69172;SDS011;56280;49.662;8.408;2024-03-22T03:08:34;27.83;;;25.05;;
69172;SDS011;56280;49.662;8.408;2024-03-22T03:10:59;31.23;;;28.03;;
69172;SDS011;56280;49.662;8.408;2024-03-22T03:13:25;31.47;;;28.30;;
69172;SDS011;56280;49.662;8.408;2024-03-22T03:15:51;30.70;;;27.80;;
69172;SDS011;56280;49.662;8.408;2024-03-22T03:18:16;28.90;;;26.20;;
69172;SDS011;56280;49.662;8.408;2024-03-22T03:20:42;29.75;;;26.88;;
69172;SDS011;56280;49.662;8.408;2024-03-22T03:23:08;31.77;;;28.77;;
69172;SDS011;56280;49.662;8.408;2024-03-22T03:25:33;28.63;;;26.10;;
69172;SDS011;56280;49.662;8.408;2024-03-22T03:27:58;28.87;;;26.17;;
69172;SDS011;56280;49.662;8.408;2024-03-22T03:30:24;30.37;;;27.67;;
69172;SDS011;56280;49.662;8.408;2024-03-22T03:32:49;30.17;;;27.43;;
69172;SDS011;56280;49.662;8.408;2024-03-22T03:35:14;30.30;;;27.53;;
69172;SDS011;56280;49.662;8.408;2024-03-22T03:37:40;30.57;;;27.77;;
69172;SDS011;56280;49.662;8.408;2024-03-22T03:40:05;28.70;;;26.00;;
69172;SDS011;56280;49.662;8.408;2024-03-22T03:42:31;28.35;;;25.55;;
69172;SDS011;56280;49.662;8.408;2024-03-22T03:44:57;30.87;;;28.07;;
69172;SDS011;56280;49.662;8.408;2024-03-22T03:47:22;28.50;;;25.70;;
69172;SDS011;56280;49.662;8.408;2024-03-22T03:49:47;27.20;;;24.67;;
69172;SDS011;56280;49.662;8.408;2024-03-22T03:52:13;27.80;;;25.30;;
69172;SDS011;56280;49.662;8.408;2024-03-22T03:54:38;28.23;;;25.63;;
69172;SDS011;56280;49.662;8.408;2024-03-22T03:57:04;31.93;;;29.03;;
69172;SDS011;56280;49.662;8.408;2024-03-22T03:59:29;29.90;;;27.23;;
69172;SDS011;56280;49.662;8.408;2024-03-22T04:01:54;30.67;;;28.10;;
69172;SDS011;56280;49.662;8.408;2024-03-22T04:04:20;30.30;;;27.52;;
69172;SDS011;56280;49.662;8.408;2024-03-22T04:06:45;31.33;;;28.33;;
69172;SDS011;56280;49.662;8.408;2024-03-22T04:09:10;29.77;;;26.67;;
69172;SDS011;56280;49.662;8.408;2024-03-22T04:11:36;31.37;;;28.50;;
69172;SDS011;56280;49.662;8.408;2024-03-22T04:14:02;33.22;;;29.92;;
69172;SDS011;56280;49.662;8.408;2024-03-22T04:16:28;30.60;;;27.70;;
69172;SDS011;56280;49.662;8.408;2024-03-22T04:18:53;30.90;;;27.97;;
69172;SDS011;56280;49.662;8.408;2024-03-22T04:21:18;33.72;;;30.60;;
69172;SDS011;56280;49.662;8.408;2024-03-22T04:23:43;31.23;;;28.30;;
69172;SDS011;56280;49.662;8.408;2024-03-22T04:26:09;34.37;;;31.20;;
69172;SDS011;56280;49.662;8.408;2024-03-22T04:28:34;31.20;;;28.20;;
69172;SDS011;56280;49.662;8.408;2024-03-22T04:31:03;30.03;;;27.03;;
69172;SDS011;56280;49.662;8.408;2024-03-22T04:33:30;32.17;;;29.02;;
69172;SDS011;56280;49.662;8.408;2024-03-22T04:35:56;30.45;;;27.45;;
69172;SDS011;56280;49.662;8.408;2024-03-22T04:38:23;33.28;;;30.38;;
69172;SDS011;56280;49.662;8.408;2024-03-22T04:40:49;30.27;;;27.57;;
69172;SDS011;56280;49.662;8.408;2024-03-22T04:43:14;29.87;;;26.77;;
69172;SDS011;56280;49.662;8.408;2024-03-22T04:45:42;30.63;;;27.92;;
69172;SDS011;56280;49.662;8.408;2024-03-22T04:48:07;31.27;;;28.27;;
69172;SDS011;56280;49.662;8.408;2024-03-22T04:50:33;30.23;;;27.42;;
69172;SDS011;56280;49.662;8.408;2024-03-22T04:52:59;29.40;;;26.43;;
69172;SDS011;56280;49.662;8.408;2024-03-22T04:55:24;31.43;;;28.33;;
69172;SDS011;56280;49.662;8.408;2024-03-22T04:57:52;30.48;;;27.35;;
69172;SDS011;56280;49.662;8.408;2024-03-22T05:00:17;33.77;;;30.40;;
69172;SDS011;56280;49.662;8.408;2024-03-22T05:02:43;30.07;;;27.00;;
69172;SDS011;56280;49.662;8.408;2024-03-22T05:05:08;31.07;;;27.70;;
69172;SDS011;56280;49.662;8.408;2024-03-22T05:07:34;31.03;;;27.83;;
69172;SDS011;56280;49.662;8.408;2024-03-22T05:09:59;32.35;;;29.30;;
69172;SDS011;56280;49.662;8.408;2024-03-22T05:12:24;32.28;;;29.27;;
69172;SDS011;56280;49.662;8.408;2024-03-22T05:14:50;29.97;;;27.10;;
69172;SDS011;56280;49.662;8.408;2024-03-22T05:17:15;29.05;;;26.00;;
69172;SDS011;56280;49.662;8.408;2024-03-22T05:19:40;31.40;;;28.40;;
69172;SDS011;56280;49.662;8.408;2024-03-22T05:22:05;28.67;;;25.90;;
69172;SDS011;56280;49.662;8.408;2024-03-22T05:24:31;30.07;;;27.17;;
69172;SDS011;56280;49.662;8.408;2024-03-22T05:26:56;28.88;;;26.02;;
69172;SDS011;56280;49.662;8.408;2024-03-22T05:29:21;28.00;;;25.38;;
69172;SDS011;56280;49.662;8.408;2024-03-22T05:31:49;29.38;;;26.38;;
69172;SDS011;56280;49.662;8.408;2024-03-22T05:34:16;26.52;;;23.92;;
69172;SDS011;56280;49.662;8.408;2024-03-22T05:36:42;26.25;;;23.45;;
69172;SDS011;56280;49.662;8.408;2024-03-22T05:39:07;27.17;;;24.58;;
69172;SDS011;56280;49.662;8.408;2024-03-22T05:41:33;26.45;;;23.73;;
69172;SDS011;56280;49.662;8.408;2024-03-22T05:43:58;26.07;;;23.57;;
69172;SDS011;56280;49.662;8.408;2024-03-22T05:46:24;26.00;;;22.65;;
69172;SDS011;56280;49.662;8.408;2024-03-22T05:48:50;24.47;;;21.83;;
69172;SDS011;56280;49.662;8.408;2024-03-22T05:51:17;24.95;;;21.80;;
69172;SDS011;56280;49.662;8.408;2024-03-22T05:53:42;25.63;;;21.52;;
69172;SDS011;56280;49.662;8.408;2024-03-22T05:56:08;23.27;;;18.00;;
69172;SDS011;56280;49.662;8.408;2024-03-22T05:58:34;21.67;;;18.13;;
69172;SDS011;56280;49.662;8.408;2024-03-22T06:00:59;17.58;;;12.20;;
69172;SDS011;56280;49.662;8.408;2024-03-22T06:03:24;21.07;;;12.80;;
69172;SDS011;56280;49.662;8.408;2024-03-22T06:05:49;17.53;;;11.00;;
69172;SDS011;56280;49.662;8.408;2024-03-22T06:08:19;19.65;;;11.30;;
69172;SDS011;56280;49.662;8.408;2024-03-22T06:10:45;19.67;;;11.23;;
69172;SDS011;56280;49.662;8.408;2024-03-22T06:13:10;18.63;;;10.87;;
69172;SDS011;56280;49.662;8.408;2024-03-22T06:15:35;18.60;;;10.30;;
69172;SDS011;56280;49.662;8.408;2024-03-22T06:18:01;17.97;;;10.37;;
69172;SDS011;56280;49.662;8.408;2024-03-22T06:20:26;17.47;;;10.43;;
69172;SDS011;56280;49.662;8.408;2024-03-22T06:22:52;18.50;;;10.80;;
69172;SDS011;56280;49.662;8.408;2024-03-22T06:25:17;22.43;;;11.03;;
69172;SDS011;56280;49.662;8.408;2024-03-22T06:27:42;20.53;;;11.47;;
69172;SDS011;56280;49.662;8.408;2024-03-22T06:30:08;20.37;;;10.97;;
69172;SDS011;56280;49.662;8.408;2024-03-22T06:32:33;19.10;;;10.82;;
69172;SDS011;56280;49.662;8.408;2024-03-22T06:34:59;17.93;;;10.50;;
69172;SDS011;56280;49.662;8.408;2024-03-22T06:37:24;20.77;;;11.13;;
69172;SDS011;56280;49.662;8.408;2024-03-22T06:39:49;19.63;;;11.13;;
69172;SDS011;56280;49.662;8.408;2024-03-22T06:42:14;18.90;;;11.20;;
69172;SDS011;56280;49.662;8.408;2024-03-22T06:44:39;19.50;;;11.67;;
69172;SDS011;56280;49.662;8.408;2024-03-22T06:47:05;18.03;;;11.23;;
69172;SDS011;56280;49.662;8.408;2024-03-22T06:49:30;20.37;;;10.43;;
69172;SDS011;56280;49.662;8.408;2024-03-22T06:51:56;17.63;;;11.03;;
69172;SDS011;56280;49.662;8.408;2024-03-22T06:54:21;18.43;;;11.53;;
69172;SDS011;56280;49.662;8.408;2024-03-22T06:56:47;20.63;;;11.57;;
69172;SDS011;56280;49.662;8.408;2024-03-22T06:59:12;20.07;;;11.80;;
69172;SDS011;56280;49.662;8.408;2024-03-22T07:01:37;24.13;;;12.70;;
69172;SDS011;56280;49.662;8.408;2024-03-22T07:04:02;18.17;;;11.37;;
69172;SDS011;56280;49.662;8.408;2024-03-22T07:06:28;18.53;;;11.37;;
69172;SDS011;56280;49.662;8.408;2024-03-22T07:08:53;20.17;;;11.50;;
69172;SDS011;56280;49.662;8.408;2024-03-22T07:11:18;18.97;;;11.83;;
69172;SDS011;56280;49.662;8.408;2024-03-22T07:13:43;21.33;;;11.50;;
69172;SDS011;56280;49.662;8.408;2024-03-22T07:16:09;21.10;;;11.57;;
69172;SDS011;56280;49.662;8.408;2024-03-22T07:18:34;17.90;;;11.17;;
69172;SDS011;56280;49.662;8.408;2024-03-22T07:21:00;19.23;;;11.23;;
69172;SDS011;56280;49.662;8.408;2024-03-22T07:23:27;20.33;;;12.15;;
69172;SDS011;56280;49.662;8.408;2024-03-22T07:25:52;18.60;;;11.87;;
69172;SDS011;56280;49.662;8.408;2024-03-22T07:28:18;20.50;;;11.67;;
69172;SDS011;56280;49.662;8.408;2024-03-22T07:30:43;21.00;;;12.10;;
69172;SDS011;56280;49.662;8.408;2024-03-22T07:33:09;20.13;;;11.87;;
69172;SDS011;56280;49.662;8.408;2024-03-22T07:35:38;18.48;;;11.73;;
69172;SDS011;56280;49.662;8.408;2024-03-22T07:38:03;19.10;;;11.07;;
69172;SDS011;56280;49.662;8.408;2024-03-22T07:40:29;19.55;;;11.00;;
69172;SDS011;56280;49.662;8.408;2024-03-22T07:42:54;20.52;;;11.98;;
69172;SDS011;56280;49.662;8.408;2024-03-22T07:45:19;19.03;;;11.27;;
69172;SDS011;56280;49.662;8.408;2024-03-22T07:47:45;19.17;;;11.13;;
69172;SDS011;56280;49.662;8.408;2024-03-22T07:50:10;21.20;;;11.65;;
69172;SDS011;56280;49.662;8.408;2024-03-22T07:52:35;21.20;;;11.13;;
69172;SDS011;56280;49.662;8.408;2024-03-22T07:55:01;19.73;;;10.47;;
69172;SDS011;56280;49.662;8.408;2024-03-22T07:57:29;17.48;;;10.15;;
69172;SDS011;56280;49.662;8.408;2024-03-22T07:59:57;19.73;;;10.68;;
69172;SDS011;56280;49.662;8.408;2024-03-22T08:02:23;19.37;;;10.80;;
69172;SDS011;56280;49.662;8.408;2024-03-22T08:04:48;16.85;;;10.68;;
69172;SDS011;56280;49.662;8.408;2024-03-22T08:07:14;18.35;;;11.18;;
69172;SDS011;56280;49.662;8.408;2024-03-22T08:09:39;18.20;;;11.30;;
69172;SDS011;56280;49.662;8.408;2024-03-22T08:12:05;18.98;;;10.55;;
69172;SDS011;56280;49.662;8.408;2024-03-22T08:14:31;19.38;;;10.85;;
69172;SDS011;56280;49.662;8.408;2024-03-22T08:16:56;17.20;;;10.50;;
69172;SDS011;56280;49.662;8.408;2024-03-22T08:22:43;15.57;;;10.07;;
69172;SDS011;56280;49.662;8.408;2024-03-22T08:25:08;16.63;;;9.73;;
69172;SDS011;56280;49.662;8.408;2024-03-22T08:27:34;14.80;;;9.63;;
69172;SDS011;56280;49.662;8.408;2024-03-22T08:29:59;17.77;;;9.63;;
69172;SDS011;56280;49.662;8.408;2024-03-22T08:32:25;18.15;;;9.57;;
69172;SDS011;56280;49.662;8.408;2024-03-22T08:34:50;15.13;;;9.40;;
69172;SDS011;56280;49.662;8.408;2024-03-22T08:37:15;17.77;;;9.93;;
69172;SDS011;56280;49.662;8.408;2024-03-22T08:39:41;16.80;;;10.17;;
69172;SDS011;56280;49.662;8.408;2024-03-22T08:42:06;17.53;;;10.37;;
69172;SDS011;56280;49.662;8.408;2024-03-22T08:44:31;18.53;;;10.70;;
69172;SDS011;56280;49.662;8.408;2024-03-22T08:46:57;19.37;;;11.80;;
69172;SDS011;56280;49.662;8.408;2024-03-22T08:49:23;21.27;;;12.73;;
69172;SDS011;56280;49.662;8.408;2024-03-22T08:51:48;18.10;;;11.40;;
69172;SDS011;56280;49.662;8.408;2024-03-22T08:54:14;19.37;;;12.00;;
69172;SDS011;56280;49.662;8.408;2024-03-22T08:56:39;20.60;;;11.77;;
69172;SDS011;56280;49.662;8.408;2024-03-22T08:59:04;18.10;;;11.70;;
69172;SDS011;56280;49.662;8.408;2024-03-22T09:01:30;21.73;;;11.90;;
69172;SDS011;56280;49.662;8.408;2024-03-22T09:03:55;20.63;;;12.53;;
69172;SDS011;56280;49.662;8.408;2024-03-22T09:06:21;20.37;;;11.60;;
69172;SDS011;56280;49.662;8.408;2024-03-22T09:08:46;19.07;;;11.47;;
69172;SDS011;56280;49.662;8.408;2024-03-22T09:11:12;20.17;;;12.00;;
69172;SDS011;56280;49.662;8.408;2024-03-22T09:13:37;19.48;;;12.85;;
69172;SDS011;56280;49.662;8.408;2024-03-22T09:16:03;24.63;;;12.57;;
69172;SDS011;56280;49.662;8.408;2024-03-22T09:18:28;20.43;;;12.63;;
69172;SDS011;56280;49.662;8.408;2024-03-22T09:20:54;23.97;;;13.23;;
69172;SDS011;56280;49.662;8.408;2024-03-22T09:23:19;21.27;;;12.90;;
69172;SDS011;56280;49.662;8.408;2024-03-22T09:25:45;23.00;;;13.10;;
69172;SDS011;56280;49.662;8.408;2024-03-22T09:28:12;21.67;;;12.93;;
69172;SDS011;56280;49.662;8.408;2024-03-22T09:30:38;20.47;;;12.13;;
69172;SDS011;56280;49.662;8.408;2024-03-22T09:33:04;22.60;;;12.85;;
69172;SDS011;56280;49.662;8.408;2024-03-22T09:35:29;19.00;;;13.27;;
69172;SDS011;56280;49.662;8.408;2024-03-22T09:37:56;21.15;;;13.40;;
69172;SDS011;56280;49.662;8.408;2024-03-22T09:40:21;20.90;;;13.90;;
69172;SDS011;56280;49.662;8.408;2024-03-22T09:42:46;23.47;;;14.03;;
69172;SDS011;56280;49.662;8.408;2024-03-22T09:45:13;22.05;;;11.98;;
69172;SDS011;56280;49.662;8.408;2024-03-22T09:47:43;20.13;;;11.20;;
69172;SDS011;56280;49.662;8.408;2024-03-22T09:50:10;17.63;;;11.67;;
69172;SDS011;56280;49.662;8.408;2024-03-22T09:52:37;17.55;;;11.00;;
69172;SDS011;56280;49.662;8.408;2024-03-22T09:55:04;17.65;;;10.27;;
69172;SDS011;56280;49.662;8.408;2024-03-22T09:57:30;19.45;;;10.10;;
69172;SDS011;56280;49.662;8.408;2024-03-22T09:59:55;14.70;;;9.48;;
69172;SDS011;56280;49.662;8.408;2024-03-22T10:02:21;15.95;;;10.05;;
69172;SDS011;56280;49.662;8.408;2024-03-22T10:04:48;16.63;;;9.10;;
69172;SDS011;56280;49.662;8.408;2024-03-22T10:07:15;15.15;;;8.57;;
69172;SDS011;56280;49.662;8.408;2024-03-22T10:09:41;14.05;;;8.77;;
69172;SDS011;56280;49.662;8.408;2024-03-22T10:12:09;16.42;;;9.05;;
69172;SDS011;56280;49.662;8.408;2024-03-22T10:14:34;15.20;;;9.10;;
69172;SDS011;56280;49.662;8.408;2024-03-22T10:17:01;13.90;;;8.50;;
69172;SDS011;56280;49.662;8.408;2024-03-22T10:19:27;11.93;;;7.80;;
69172;SDS011;56280;49.662;8.408;2024-03-22T10:21:59;13.07;;;8.07;;
69172;SDS011;56280;49.662;8.408;2024-03-22T10:24:25;12.55;;;7.82;;
69172;SDS011;56280;49.662;8.408;2024-03-22T10:26:51;11.60;;;7.23;;
69172;SDS011;56280;49.662;8.408;2024-03-22T10:29:16;10.83;;;7.37;;
69172;SDS011;56280;49.662;8.408;2024-03-22T10:31:41;10.57;;;7.07;;
69172;SDS011;56280;49.662;8.408;2024-03-22T10:34:07;9.90;;;6.65;;
69172;SDS011;56280;49.662;8.408;2024-03-22T10:36:36;10.80;;;6.72;;
69172;SDS011;56280;49.662;8.408;2024-03-22T10:39:01;10.57;;;6.60;;
69172;SDS011;56280;49.662;8.408;2024-03-22T10:41:29;9.73;;;6.25;;
69172;SDS011;56280;49.662;8.408;2024-03-22T10:43:54;11.67;;;6.43;;
69172;SDS011;56280;49.662;8.408;2024-03-22T10:46:20;11.20;;;6.40;;
69172;SDS011;56280;49.662;8.408;2024-03-22T10:48:46;9.23;;;6.38;;
69172;SDS011;56280;49.662;8.408;2024-03-22T10:51:11;10.83;;;6.40;;
69172;SDS011;56280;49.662;8.408;2024-03-22T10:53:40;10.50;;;6.57;;
69172;SDS011;56280;49.662;8.408;2024-03-22T10:56:06;10.48;;;5.70;;
69172;SDS011;56280;49.662;8.408;2024-03-22T10:58:34;11.53;;;5.83;;
69172;SDS011;56280;49.662;8.408;2024-03-22T11:00:59;11.53;;;6.03;;
69172;SDS011;56280;49.662;8.408;2024-03-22T11:03:25;10.07;;;5.68;;
69172;SDS011;56280;49.662;8.408;2024-03-22T11:05:55;10.00;;;6.05;;
69172;SDS011;56280;49.662;8.408;2024-03-22T11:08:25;10.43;;;5.50;;
69172;SDS011;56280;49.662;8.408;2024-03-22T11:10:50;8.82;;;5.75;;
69172;SDS011;56280;49.662;8.408;2024-03-22T11:13:16;10.02;;;5.90;;
69172;SDS011;56280;49.662;8.408;2024-03-22T11:15:42;9.52;;;5.65;;
69172;SDS011;56280;49.662;8.408;2024-03-22T11:18:08;9.77;;;5.33;;
69172;SDS011;56280;49.662;8.408;2024-03-22T11:20:36;10.33;;;5.73;;
69172;SDS011;56280;49.662;8.408;2024-03-22T11:23:03;9.05;;;5.30;;
69172;SDS011;56280;49.662;8.408;2024-03-22T11:25:29;8.32;;;4.57;;
69172;SDS011;56280;49.662;8.408;2024-03-22T11:27:57;8.48;;;4.68;;
69172;SDS011;56280;49.662;8.408;2024-03-22T11:30:24;8.00;;;4.70;;
69172;SDS011;56280;49.662;8.408;2024-03-22T11:32:50;9.02;;;4.68;;
69172;SDS011;56280;49.662;8.408;2024-03-22T11:35:16;7.25;;;4.30;;
69172;SDS011;56280;49.662;8.408;2024-03-22T11:37:41;7.60;;;4.53;;
69172;SDS011;56280;49.662;8.408;2024-03-22T11:40:10;7.20;;;4.53;;
69172;SDS011;56280;49.662;8.408;2024-03-22T11:42:40;7.05;;;4.15;;
69172;SDS011;56280;49.662;8.408;2024-03-22T11:45:08;8.27;;;4.88;;
69172;SDS011;56280;49.662;8.408;2024-03-22T11:47:35;9.88;;;4.30;;
69172;SDS011;56280;49.662;8.408;2024-03-22T11:50:01;8.32;;;4.20;;
69172;SDS011;56280;49.662;8.408;2024-03-22T11:52:27;8.98;;;4.78;;
69172;SDS011;56280;49.662;8.408;2024-03-22T11:54:53;9.13;;;4.60;;
69172;SDS011;56280;49.662;8.408;2024-03-22T11:57:20;8.73;;;4.30;;
69172;SDS011;56280;49.662;8.408;2024-03-22T11:59:46;7.90;;;4.57;;
69172;SDS011;56280;49.662;8.408;2024-03-22T12:02:11;10.87;;;4.83;;
69172;SDS011;56280;49.662;8.408;2024-03-22T12:04:40;8.43;;;5.17;;
69172;SDS011;56280;49.662;8.408;2024-03-22T12:07:08;9.17;;;4.50;;
69172;SDS011;56280;49.662;8.408;2024-03-22T12:09:41;8.20;;;5.20;;
69172;SDS011;56280;49.662;8.408;2024-03-22T12:12:07;8.85;;;4.72;;
69172;SDS011;56280;49.662;8.408;2024-03-22T12:14:33;9.57;;;5.05;;
69172;SDS011;56280;49.662;8.408;2024-03-22T12:16:59;7.70;;;4.90;;
69172;SDS011;56280;49.662;8.408;2024-03-22T12:19:24;8.60;;;4.70;;
69172;SDS011;56280;49.662;8.408;2024-03-22T12:21:50;8.57;;;4.73;;
69172;SDS011;56280;49.662;8.408;2024-03-22T12:24:15;7.10;;;4.33;;
69172;SDS011;56280;49.662;8.408;2024-03-22T12:26:40;7.57;;;4.47;;
69172;SDS011;56280;49.662;8.408;2024-03-22T12:29:06;7.23;;;4.87;;
69172;SDS011;56280;49.662;8.408;2024-03-22T12:31:32;8.60;;;4.90;;
69172;SDS011;56280;49.662;8.408;2024-03-22T12:33:57;8.73;;;4.90;;
69172;SDS011;56280;49.662;8.408;2024-03-22T12:36:22;9.17;;;5.27;;
69172;SDS011;56280;49.662;8.408;2024-03-22T12:38:49;10.15;;;4.95;;
69172;SDS011;56280;49.662;8.408;2024-03-22T12:41:14;8.53;;;5.20;;
69172;SDS011;56280;49.662;8.408;2024-03-22T12:43:39;9.63;;;5.07;;
69172;SDS011;56280;49.662;8.408;2024-03-22T12:46:06;8.97;;;5.67;;
69172;SDS011;56280;49.662;8.408;2024-03-22T12:48:32;10.23;;;5.80;;
69172;SDS011;56280;49.662;8.408;2024-03-22T12:50:57;9.80;;;5.17;;
69172;SDS011;56280;49.662;8.408;2024-03-22T12:53:22;9.40;;;5.20;;
69172;SDS011;56280;49.662;8.408;2024-03-22T12:55:47;8.83;;;5.70;;
69172;SDS011;56280;49.662;8.408;2024-03-22T12:58:13;8.30;;;5.40;;
69172;SDS011;56280;49.662;8.408;2024-03-22T13:00:38;13.27;;;7.38;;
69172;SDS011;56280;49.662;8.408;2024-03-22T13:03:04;11.70;;;7.60;;
69172;SDS011;56280;49.662;8.408;2024-03-22T13:05:29;14.07;;;7.40;;
69172;SDS011;56280;49.662;8.408;2024-03-22T13:07:56;14.07;;;8.52;;
69172;SDS011;56280;49.662;8.408;2024-03-22T13:10:21;14.13;;;8.13;;
69172;SDS011;56280;49.662;8.408;2024-03-22T13:12:46;14.23;;;9.33;;
69172;SDS011;56280;49.662;8.408;2024-03-22T13:15:12;15.57;;;10.30;;
69172;SDS011;56280;49.662;8.408;2024-03-22T13:17:38;16.23;;;9.48;;
69172;SDS011;56280;49.662;8.408;2024-03-22T13:20:04;16.42;;;9.88;;
69172;SDS011;56280;49.662;8.408;2024-03-22T13:22:35;18.85;;;10.60;;
69172;SDS011;56280;49.662;8.408;2024-03-22T13:25:01;17.20;;;10.38;;
69172;SDS011;56280;49.662;8.408;2024-03-22T13:27:26;15.93;;;9.43;;
69172;SDS011;56280;49.662;8.408;2024-03-22T13:29:51;17.57;;;10.23;;
69172;SDS011;56280;49.662;8.408;2024-03-22T13:32:17;16.07;;;10.40;;
69172;SDS011;56280;49.662;8.408;2024-03-22T13:34:45;18.80;;;11.27;;
69172;SDS011;56280;49.662;8.408;2024-03-22T13:37:10;17.03;;;10.63;;
69172;SDS011;56280;49.662;8.408;2024-03-22T13:39:35;18.23;;;10.73;;
69172;SDS011;56280;49.662;8.408;2024-03-22T13:42:01;16.63;;;10.33;;
69172;SDS011;56280;49.662;8.408;2024-03-22T13:44:27;17.05;;;10.20;;
69172;SDS011;56280;49.662;8.408;2024-03-22T13:46:52;15.37;;;9.53;;
69172;SDS011;56280;49.662;8.408;2024-03-22T13:49:18;15.77;;;9.47;;
69172;SDS011;56280;49.662;8.408;2024-03-22T13:51:48;16.83;;;10.83;;
69172;SDS011;56280;49.662;8.408;2024-03-22T13:54:14;15.87;;;9.97;;
69172;SDS011;56280;49.662;8.408;2024-03-22T13:56:40;15.88;;;10.25;;
69172;SDS011;56280;49.662;8.408;2024-03-22T13:59:06;15.63;;;10.17;;
69172;SDS011;56280;49.662;8.408;2024-03-22T14:01:33;15.70;;;10.05;;
69172;SDS011;56280;49.662;8.408;2024-03-22T14:03:59;17.15;;;10.80;;
69172;SDS011;56280;49.662;8.408;2024-03-22T14:06:24;16.83;;;9.40;;
69172;SDS011;56280;49.662;8.408;2024-03-22T14:08:50;18.93;;;9.93;;
69172;SDS011;56280;49.662;8.408;2024-03-22T14:11:15;15.30;;;9.87;;
69172;SDS011;56280;49.662;8.408;2024-03-22T14:13:40;15.67;;;10.03;;
69172;SDS011;56280;49.662;8.408;2024-03-22T14:16:06;15.57;;;10.23;;
69172;SDS011;56280;49.662;8.408;2024-03-22T14:18:33;17.40;;;10.47;;
69172;SDS011;56280;49.662;8.408;2024-03-22T14:21:00;16.35;;;10.05;;